LFOH 190700Z AUTO 24004KT 200V280 9999 BKN029 04/02 Q1011 TEMPO 26020G30KT 4000 SHRA BKN010 BKN020CB

ElémentsDécodage
LFOH Station météo située sur l'aérodrome de LE-HAVRE Octeville
190700Z émis le 19 du mois à 07h00 UTC
AUTO Bulletin édité par un automate
24004KT vent du 240°, 04 noeuds
200V280 vent de direction variable entre 200° et 280°
9999 visibilité horizontale supérieure à 10 Km
BKN029 nuages morcelés (5/8 à 7/8) à 2900 pieds
04/02 température 04°C, point de rosée 02°C
 soit une humidité relative de 87%
Q1011 la pression au niveau de la mer (QNH) est de 1011 hPa
TEMPO fluctuation temporaire prévue
26020G30KT vent du 260°, moyenne: 20 noeuds, avec rafales à 30 noeuds
4000 visibilité horizontale de 4000 mètres
SHRA averse(s) de pluie
BKN010 nuages morcelés (5/8 à 7/8) à 1000 pieds
BKN020CB nuages morcelés (5/8 à 7/8) à 2000 pieds
 présence de cumulonimbus